createdAt,value
2023-02-18T00:00:17.346Z,94377.59
2023-02-18T00:01:16.540Z,94413.97
2023-02-18T00:02:13.317Z,94335.50
2023-02-18T00:03:10.067Z,94413.16
2023-02-18T00:04:06.780Z,94414.56
2023-02-18T00:05:03.775Z,94416.53
2023-02-18T00:06:00.367Z,94407.50
2023-02-18T00:06:57.047Z,94409.38
2023-02-18T00:07:53.738Z,94408.38
2023-02-18T00:08:51.067Z,94381.88
2023-02-18T00:09:47.603Z,94409.16
2023-02-18T00:10:44.334Z,94401.94
2023-02-18T00:11:40.935Z,94403.16
2023-02-18T00:12:37.904Z,94400.41
2023-02-18T00:13:34.698Z,94350.47
2023-02-18T00:14:31.274Z,94392.69
2023-02-18T00:15:27.958Z,94329.78
2023-02-18T00:16:26.150Z,94399.50
2023-02-18T00:17:22.882Z,94392.53
2023-02-18T00:18:19.558Z,94392.03
2023-02-18T00:19:19.507Z,94392.63
2023-02-18T00:20:16.309Z,94382.97
2023-02-18T00:21:13.438Z,94381.50
2023-02-18T00:22:10.026Z,94378.00
2023-02-18T00:23:06.592Z,94375.56
2023-02-18T00:24:05.188Z,94366.69
2023-02-18T00:25:01.838Z,94369.25
2023-02-18T00:26:11.624Z,94381.06
2023-02-18T00:27:08.540Z,94383.38
2023-02-18T00:28:05.119Z,94376.16
2023-02-18T00:29:02.310Z,94369.16
2023-02-18T00:30:00.499Z,94374.13
2023-02-18T00:30:57.259Z,94263.50
2023-02-18T00:31:53.985Z,94362.53
2023-02-18T00:32:50.642Z,94365.47
2023-02-18T00:33:47.271Z,94341.00
2023-02-18T00:34:43.894Z,94357.66
2023-02-18T00:35:40.509Z,94351.09
2023-02-18T00:36:37.180Z,94365.16
2023-02-18T00:37:35.368Z,94364.03
2023-02-18T00:38:32.440Z,94359.88
2023-02-18T00:39:29.005Z,94345.88
2023-02-18T00:40:25.653Z,94357.63
2023-02-18T00:41:24.171Z,94362.31
2023-02-18T00:42:20.730Z,94347.03
2023-02-18T00:43:17.282Z,94367.75
2023-02-18T00:44:13.905Z,94355.63
2023-02-18T00:45:10.499Z,94364.44
2023-02-18T00:46:08.013Z,94370.91
2023-02-18T00:47:04.804Z,94372.47
2023-02-18T00:48:01.397Z,94315.81
2023-02-18T00:48:58.158Z,94372.56
2023-02-18T00:49:54.748Z,94372.84
2023-02-18T00:50:51.421Z,94368.16
2023-02-18T00:51:48.063Z,94366.09
2023-02-18T00:52:44.622Z,94366.88
2023-02-18T00:53:41.989Z,94359.59
2023-02-18T00:54:38.578Z,94367.06
2023-02-18T00:55:40.667Z,94362.16
2023-02-18T00:56:37.367Z,94363.72
2023-02-18T00:57:34.011Z,94273.09
2023-02-18T00:58:31.159Z,94362.84
2023-02-18T00:59:27.775Z,94364.59
2023-02-18T01:00:25.569Z,94347.66
2023-02-18T01:01:22.301Z,94354.94
2023-02-18T01:02:18.915Z,94360.78
2023-02-18T01:03:15.926Z,94358.56
2023-02-18T01:04:13.079Z,94355.84
2023-02-18T01:05:09.758Z,94343.25
2023-02-18T01:06:08.071Z,94354.13
2023-02-18T01:07:04.886Z,94357.78
2023-02-18T01:08:02.015Z,94364.44
2023-02-18T01:08:58.679Z,94346.06
2023-02-18T01:09:55.276Z,94346.91
2023-02-18T01:10:55.288Z,94359.59
2023-02-18T01:11:51.921Z,94324.59
2023-02-18T01:12:48.499Z,94350.94
2023-02-18T01:13:45.142Z,94357.50
2023-02-18T01:14:41.713Z,94352.97
2023-02-18T01:15:40.007Z,94339.63
2023-02-18T01:16:36.618Z,94349.19
2023-02-18T01:17:33.245Z,94348.78
2023-02-18T01:18:30.517Z,94351.84
2023-02-18T01:19:27.196Z,94294.47
2023-02-18T01:20:23.863Z,94323.03
2023-02-18T01:21:20.717Z,94312.72
2023-02-18T01:22:17.315Z,94336.25
2023-02-18T01:23:14.037Z,94249.69
2023-02-18T01:24:10.607Z,94345.34
2023-02-18T01:25:08.228Z,94344.19
2023-02-18T01:26:05.491Z,94350.03
2023-02-18T01:27:02.319Z,94290.09
2023-02-18T01:27:58.943Z,94344.63
2023-02-18T01:28:55.515Z,94341.78
2023-02-18T01:29:52.093Z,94346.59
2023-02-18T01:30:49.948Z,94335.66
2023-02-18T01:31:48.100Z,94287.88
2023-02-18T01:32:45.346Z,94300.78
2023-02-18T01:33:42.846Z,94335.16
2023-02-18T01:34:39.569Z,94353.06
2023-02-18T01:35:39.536Z,94275.97
2023-02-18T01:36:36.150Z,94346.34
2023-02-18T01:37:33.238Z,94317.06
2023-02-18T01:38:29.924Z,94362.31
2023-02-18T01:39:26.658Z,94311.78
2023-02-18T01:40:26.937Z,94351.34
2023-02-18T01:41:23.786Z,94358.44
2023-02-18T01:42:23.259Z,94357.34
2023-02-18T01:43:20.661Z,94361.97
2023-02-18T01:44:28.739Z,94358.97
2023-02-18T01:45:34.472Z,94354.56
2023-02-18T01:46:32.022Z,94358.06
2023-02-18T01:47:28.632Z,94346.88
2023-02-18T01:48:30.405Z,94362.28
2023-02-18T01:49:31.846Z,94350.69
2023-02-18T01:50:28.426Z,94358.38
2023-02-18T01:51:32.240Z,94304.16
2023-02-18T01:52:32.490Z,94353.28
2023-02-18T01:53:43.488Z,94357.78
2023-02-18T01:54:44.589Z,94353.72
2023-02-18T01:55:41.417Z,94318.78
2023-02-18T01:56:40.996Z,94354.47
2023-02-18T01:57:38.983Z,94345.97
2023-02-18T01:58:36.270Z,94352.94
2023-02-18T01:59:48.840Z,94348.78
2023-02-18T02:00:45.530Z,94336.50
2023-02-18T02:01:44.876Z,94343.94
2023-02-18T02:02:45.822Z,94351.28
2023-02-18T02:03:42.342Z,94352.78
2023-02-18T02:04:39.355Z,94305.31
2023-02-18T02:05:35.995Z,94331.34
2023-02-18T02:06:32.644Z,94348.84
2023-02-18T02:07:30.022Z,94353.75
2023-02-18T02:08:27.274Z,94350.09
2023-02-18T02:09:28.671Z,94353.41
2023-02-18T02:10:34.957Z,94352.78
2023-02-18T02:11:46.897Z,94355.91
2023-02-18T02:12:49.206Z,94359.72
2023-02-18T02:14:04.480Z,94358.34
2023-02-18T02:15:18.129Z,94334.63
2023-02-18T02:16:35.017Z,94364.03
2023-02-18T02:18:00.957Z,94348.19
2023-02-18T02:19:21.281Z,94353.09
2023-02-18T02:20:33.238Z,94361.56
2023-02-18T02:22:01.879Z,94348.56
2023-02-18T02:22:58.457Z,94352.88
2023-02-18T02:24:16.883Z,94342.78
2023-02-18T02:25:35.897Z,94342.19
2023-02-18T02:26:46.552Z,94349.94
2023-02-18T02:28:11.336Z,94345.34
2023-02-18T02:29:24.936Z,94341.50
2023-02-18T02:30:53.795Z,94343.06
2023-02-18T02:32:25.663Z,94341.59
2023-02-18T02:33:32.723Z,94346.41
2023-02-18T02:34:34.746Z,94344.66
2023-02-18T02:35:38.050Z,94348.25
2023-02-18T02:36:48.760Z,94341.41
2023-02-18T02:38:09.527Z,94286.63
2023-02-18T02:39:26.239Z,94350.72
2023-02-18T02:40:28.836Z,94334.06
2023-02-18T02:41:37.550Z,94343.88
2023-02-18T02:43:02.721Z,94349.75
2023-02-18T02:44:15.342Z,94343.00
2023-02-18T02:45:33.559Z,94352.31
2023-02-18T02:46:53.806Z,94353.47
2023-02-18T02:48:33.096Z,94350.94
2023-02-18T02:49:49.636Z,94354.06
2023-02-18T02:51:00.267Z,94353.47
2023-02-18T02:52:08.489Z,94339.34
2023-02-18T02:53:17.554Z,94354.22
2023-02-18T02:54:19.230Z,94355.75
2023-02-18T02:55:15.947Z,94363.69
2023-02-18T02:56:21.381Z,94360.50
2023-02-18T02:57:17.948Z,94362.84
2023-02-18T02:58:19.742Z,94361.28
2023-02-18T02:59:24.188Z,94361.78
2023-02-18T03:00:32.417Z,94357.63
2023-02-18T03:01:35.016Z,94362.88
2023-02-18T03:02:43.581Z,94359.13
2023-02-18T03:03:46.019Z,94344.34
2023-02-18T03:04:42.504Z,94354.78
2023-02-18T03:06:01.485Z,94352.31
2023-02-18T03:07:06.865Z,94355.91
2023-02-18T03:08:34.424Z,94359.69
2023-02-18T03:09:55.887Z,94363.78
2023-02-18T03:11:03.000Z,94297.22
2023-02-18T03:12:22.940Z,94360.69
2023-02-18T03:14:02.382Z,94366.97
2023-02-18T03:15:17.281Z,94364.53
2023-02-18T03:16:53.815Z,94362.28
2023-02-18T03:18:38.700Z,94375.69
2023-02-18T03:19:43.076Z,94369.91
2023-02-18T03:20:46.779Z,94368.28
2023-02-18T03:21:59.083Z,94377.28
2023-02-18T03:22:59.669Z,94365.41
2023-02-18T03:24:02.216Z,94369.00
2023-02-18T03:25:00.364Z,94379.69
2023-02-18T03:25:59.405Z,94376.34
2023-02-18T03:27:07.969Z,94392.56
2023-02-18T03:28:14.454Z,94382.44
2023-02-18T03:29:14.483Z,94389.84
2023-02-18T03:30:16.780Z,94380.66
2023-02-18T03:31:18.845Z,94387.28
2023-02-18T03:32:21.309Z,94387.22
2023-02-18T03:33:20.565Z,94380.50
2023-02-18T03:34:23.773Z,94381.56
2023-02-18T03:35:20.564Z,94335.53
2023-02-18T03:36:19.157Z,94385.38
2023-02-18T03:37:16.468Z,94385.81
2023-02-18T03:38:21.800Z,94321.66
2023-02-18T03:39:20.294Z,94355.91
2023-02-18T03:40:18.582Z,94381.16
2023-02-18T03:41:15.717Z,94394.78
2023-02-18T03:42:12.471Z,94372.56
2023-02-18T03:43:09.212Z,94380.69
2023-02-18T03:44:08.882Z,94393.13
2023-02-18T03:45:05.742Z,94395.38
2023-02-18T03:46:03.771Z,94390.00
2023-02-18T03:47:00.457Z,94360.22
2023-02-18T03:47:58.191Z,94396.94
2023-02-18T03:48:54.840Z,94378.13
2023-02-18T03:49:51.419Z,94388.22
2023-02-18T03:50:48.030Z,94367.16
2023-02-18T03:51:44.879Z,94365.75
2023-02-18T03:52:41.466Z,94379.63
2023-02-18T03:53:38.032Z,94385.75
2023-02-18T03:54:34.709Z,94344.44
2023-02-18T03:55:31.435Z,94380.09
2023-02-18T03:56:28.420Z,94366.66
2023-02-18T03:57:25.042Z,94396.25
2023-02-18T03:58:21.646Z,94393.72
2023-02-18T03:59:18.318Z,94395.22
2023-02-18T04:00:15.221Z,94394.66
2023-02-18T04:01:12.027Z,94392.97
2023-02-18T04:02:08.817Z,94386.72
2023-02-18T04:03:05.399Z,94395.81
2023-02-18T04:04:03.277Z,94391.72
2023-02-18T04:05:00.027Z,94393.00
2023-02-18T04:05:57.215Z,94366.63
2023-02-18T04:06:53.849Z,94394.22
2023-02-18T04:07:50.440Z,94395.63
2023-02-18T04:08:47.142Z,94392.19
2023-02-18T04:09:43.783Z,94366.78
2023-02-18T04:10:40.494Z,94358.25
2023-02-18T04:11:40.800Z,94396.44
2023-02-18T04:12:37.374Z,94392.84
2023-02-18T04:13:34.026Z,94378.50
2023-02-18T04:14:30.645Z,94383.22
2023-02-18T04:15:27.538Z,94379.50
2023-02-18T04:16:24.142Z,94373.81
2023-02-18T04:17:20.847Z,94349.34
2023-02-18T04:18:18.007Z,94378.94
2023-02-18T04:19:14.698Z,94381.09
2023-02-18T04:20:11.925Z,94387.22
2023-02-18T04:21:09.818Z,94381.09
2023-02-18T04:22:06.709Z,94393.22
2023-02-18T04:23:04.900Z,94386.66
2023-02-18T04:24:01.652Z,94385.38
2023-02-18T04:24:59.349Z,94377.25
2023-02-18T04:25:55.950Z,94381.56
2023-02-18T04:26:52.593Z,94342.50
2023-02-18T04:27:49.283Z,94381.47
2023-02-18T04:28:46.094Z,94374.78
2023-02-18T04:29:42.789Z,94386.66
2023-02-18T04:30:39.996Z,94388.31
2023-02-18T04:31:37.070Z,94339.34
2023-02-18T04:32:33.806Z,94385.00
2023-02-18T04:33:30.388Z,94389.59
2023-02-18T04:34:27.024Z,94388.59
2023-02-18T04:35:23.866Z,94379.69
2023-02-18T04:36:20.491Z,94380.59
2023-02-18T04:37:17.194Z,94385.69
2023-02-18T04:38:14.323Z,94388.50
2023-02-18T04:39:10.912Z,94387.88
2023-02-18T04:40:08.621Z,94383.97
2023-02-18T04:41:05.348Z,94382.53
2023-02-18T04:42:02.020Z,94376.56
2023-02-18T04:42:59.196Z,94393.31
2023-02-18T04:43:55.909Z,94373.91
2023-02-18T04:44:52.532Z,94392.13
2023-02-18T04:45:49.219Z,94390.28
2023-02-18T04:46:45.790Z,94386.47
2023-02-18T04:47:42.367Z,94388.91
2023-02-18T04:48:39.051Z,94391.53
2023-02-18T04:49:35.859Z,94406.50
2023-02-18T04:50:32.578Z,94384.59
2023-02-18T04:51:29.195Z,94335.91
2023-02-18T04:52:26.046Z,94397.16
2023-02-18T04:53:22.801Z,94394.38
2023-02-18T04:54:19.368Z,94399.22
2023-02-18T04:55:16.086Z,94378.13
2023-02-18T04:56:13.062Z,94392.03
2023-02-18T04:57:09.659Z,94384.97
2023-02-18T04:58:06.349Z,94368.44
2023-02-18T04:59:02.923Z,94326.47
2023-02-18T04:59:59.690Z,94386.97
2023-02-18T05:01:03.177Z,94296.69
2023-02-18T05:01:59.816Z,94388.03
2023-02-18T05:02:56.487Z,94376.38
2023-02-18T05:03:53.191Z,94373.81
2023-02-18T05:04:49.840Z,94371.19
2023-02-18T05:05:46.591Z,94376.38
2023-02-18T05:06:44.024Z,94355.91
2023-02-18T05:07:42.548Z,94375.78
2023-02-18T05:08:39.136Z,94368.53
2023-02-18T05:09:35.830Z,94374.41
2023-02-18T05:10:32.465Z,94364.28
2023-02-18T05:11:29.018Z,94375.75
2023-02-18T05:12:25.653Z,94378.19
2023-02-18T05:13:22.981Z,94362.13
2023-02-18T05:14:19.547Z,94345.53
2023-02-18T05:15:16.334Z,94381.66
2023-02-18T05:16:14.024Z,94381.75
2023-02-18T05:17:10.690Z,94384.41
2023-02-18T05:18:07.896Z,94384.41
2023-02-18T05:19:04.516Z,94388.13
2023-02-18T05:20:01.620Z,94373.03
2023-02-18T05:20:58.610Z,94390.38
2023-02-18T05:21:55.176Z,94304.13
2023-02-18T05:22:51.812Z,94375.19
2023-02-18T05:23:48.475Z,94380.47
2023-02-18T05:24:45.110Z,94388.34
2023-02-18T05:25:41.787Z,94378.53
2023-02-18T05:26:38.472Z,94343.38
2023-02-18T05:27:35.084Z,94370.69
2023-02-18T05:28:32.022Z,94301.97
2023-02-18T05:29:28.606Z,94349.47
2023-02-18T05:30:25.369Z,94379.91
2023-02-18T05:31:22.188Z,94369.34
2023-02-18T05:32:18.959Z,94386.75
2023-02-18T05:33:15.698Z,94345.72
2023-02-18T05:34:12.282Z,94334.84
2023-02-18T05:35:09.282Z,94382.66
2023-02-18T05:36:06.295Z,94351.50
2023-02-18T05:37:02.965Z,94349.34
2023-02-18T05:37:59.477Z,94386.47
2023-02-18T05:38:56.012Z,94373.63
2023-02-18T05:39:52.592Z,94384.50
2023-02-18T05:40:49.671Z,94369.78
2023-02-18T05:41:46.217Z,94385.19
2023-02-18T05:42:42.874Z,94383.59
2023-02-18T05:43:58.245Z,94388.91
2023-02-18T05:44:54.888Z,94366.75
2023-02-18T05:45:51.499Z,94383.03
2023-02-18T05:46:48.110Z,94386.75
2023-02-18T05:47:44.817Z,94395.09
2023-02-18T05:48:41.384Z,94383.13
2023-02-18T05:49:39.002Z,94291.88
2023-02-18T05:50:36.073Z,94376.19
2023-02-18T05:51:32.760Z,94387.16
2023-02-18T05:52:29.390Z,94387.16
2023-02-18T05:53:25.949Z,94392.44
2023-02-18T05:54:22.570Z,94384.47
2023-02-18T05:55:19.380Z,94380.28
2023-02-18T05:56:16.000Z,94381.94
2023-02-18T05:57:14.828Z,94390.78
2023-02-18T05:58:11.505Z,94399.66
2023-02-18T05:59:08.075Z,94387.97
2023-02-18T06:00:06.264Z,94382.81
2023-02-18T06:01:03.128Z,94389.16
2023-02-18T06:02:00.686Z,94335.28
2023-02-18T06:02:59.613Z,94370.16
2023-02-18T06:03:56.206Z,94383.34
2023-02-18T06:04:52.772Z,94377.31
2023-02-18T06:05:53.745Z,94372.88
2023-02-18T06:06:50.521Z,94373.53
2023-02-18T06:07:47.133Z,94339.94
2023-02-18T06:08:43.710Z,94372.69
2023-02-18T06:09:40.311Z,94376.94
2023-02-18T06:10:36.984Z,94370.16
2023-02-18T06:11:33.804Z,94331.63
2023-02-18T06:12:30.476Z,94379.03
2023-02-18T06:13:27.111Z,94336.31
2023-02-18T06:14:23.831Z,94370.38
2023-02-18T06:15:20.412Z,94382.81
2023-02-18T06:16:17.018Z,94377.59
2023-02-18T06:17:14.886Z,94393.03
2023-02-18T06:18:11.465Z,94389.19
2023-02-18T06:19:08.198Z,94382.97
2023-02-18T06:20:05.310Z,94368.88
2023-02-18T06:21:01.931Z,94397.63
2023-02-18T06:21:58.629Z,94381.84
2023-02-18T06:22:55.248Z,94301.69
2023-02-18T06:23:51.941Z,94389.03
2023-02-18T06:24:48.556Z,94335.31
2023-02-18T06:25:45.259Z,94373.38
2023-02-18T06:26:42.045Z,94361.59
2023-02-18T06:27:38.802Z,94370.94
2023-02-18T06:28:35.443Z,94382.25
2023-02-18T06:29:32.084Z,94351.59
2023-02-18T06:30:28.753Z,94376.16
2023-02-18T06:31:25.518Z,94366.63
2023-02-18T06:32:22.367Z,94387.56
2023-02-18T06:33:19.042Z,94387.34
2023-02-18T06:34:15.649Z,94322.50
2023-02-18T06:35:12.244Z,94386.72
2023-02-18T06:36:14.071Z,94386.34
2023-02-18T06:37:10.695Z,94394.41
2023-02-18T06:38:07.597Z,94391.03
2023-02-18T06:39:05.532Z,94399.34
2023-02-18T06:40:02.179Z,94364.78
2023-02-18T06:40:58.873Z,94392.81
2023-02-18T06:41:55.461Z,94391.72
2023-02-18T06:42:52.009Z,94367.00
2023-02-18T06:43:48.575Z,94382.34
2023-02-18T06:44:45.176Z,94381.91
2023-02-18T06:45:41.950Z,94389.13
2023-02-18T06:46:38.575Z,94386.44
2023-02-18T06:47:35.280Z,94389.13
2023-02-18T06:48:32.814Z,94394.59
2023-02-18T06:49:30.416Z,94394.34
2023-02-18T06:50:27.127Z,94382.50
2023-02-18T06:51:24.910Z,94398.09
2023-02-18T06:52:21.559Z,94357.19
2023-02-18T06:53:18.173Z,94393.44
2023-02-18T06:54:14.747Z,94394.84
2023-02-18T06:55:11.345Z,94382.81
2023-02-18T06:56:08.331Z,94380.94
2023-02-18T06:57:05.116Z,94386.59
2023-02-18T06:58:01.736Z,94387.69
2023-02-18T06:58:59.656Z,94391.44
2023-02-18T06:59:56.254Z,94389.41
2023-02-18T07:00:52.891Z,94386.09
2023-02-18T07:01:49.509Z,94388.00
2023-02-18T07:02:46.124Z,94391.91
2023-02-18T07:03:42.699Z,94390.19
2023-02-18T07:04:39.309Z,94385.97
2023-02-18T07:05:35.943Z,94384.41
2023-02-18T07:06:32.532Z,94382.66
2023-02-18T07:07:29.140Z,94344.84
2023-02-18T07:08:25.844Z,94386.13
2023-02-18T07:09:22.404Z,94385.50
2023-02-18T07:10:19.261Z,94380.63
2023-02-18T07:11:16.011Z,94385.31
2023-02-18T07:12:13.178Z,94357.50
2023-02-18T07:13:10.355Z,94375.53
2023-02-18T07:14:08.369Z,94360.75
2023-02-18T07:15:05.368Z,94378.06
2023-02-18T07:16:02.013Z,94378.84
2023-02-18T07:17:00.162Z,94392.75
2023-02-18T07:17:56.786Z,94333.03
2023-02-18T07:18:53.397Z,94388.81
2023-02-18T07:19:50.000Z,94342.44
2023-02-18T07:20:46.698Z,94388.03
2023-02-18T07:21:43.646Z,94398.06
2023-02-18T07:22:40.260Z,94357.56
2023-02-18T07:23:36.918Z,94344.16
2023-02-18T07:24:33.501Z,94400.88
2023-02-18T07:25:30.137Z,94400.09
2023-02-18T07:26:26.727Z,94397.41
2023-02-18T07:27:23.312Z,94396.34
2023-02-18T07:28:19.890Z,94399.72
2023-02-18T07:29:16.576Z,94401.09
2023-02-18T07:30:13.856Z,94394.22
2023-02-18T07:31:10.786Z,94397.13
2023-02-18T07:32:07.502Z,94387.50
2023-02-18T07:33:04.179Z,94385.88
2023-02-18T07:34:00.939Z,94384.63
2023-02-18T07:34:57.716Z,94386.78
2023-02-18T07:35:55.849Z,94345.13
2023-02-18T07:36:52.479Z,94367.91
2023-02-18T07:37:50.144Z,94381.50
2023-02-18T07:38:46.758Z,94389.47
2023-02-18T07:39:43.719Z,94391.06
2023-02-18T07:40:40.648Z,94328.75
2023-02-18T07:41:37.346Z,94331.25
2023-02-18T07:42:33.933Z,94384.03
2023-02-18T07:43:30.541Z,94381.06
2023-02-18T07:44:27.685Z,94382.13
2023-02-18T07:45:24.376Z,94293.81
2023-02-18T07:46:21.125Z,94385.88
2023-02-18T07:47:19.815Z,94336.34
2023-02-18T07:48:17.529Z,94386.03
2023-02-18T07:49:14.091Z,94392.31
2023-02-18T07:50:11.519Z,94389.47
2023-02-18T07:51:09.770Z,94393.75
2023-02-18T07:52:06.413Z,94286.03
2023-02-18T07:53:04.852Z,94355.59
2023-02-18T07:54:01.572Z,94387.94
2023-02-18T07:55:00.919Z,94385.53
2023-02-18T07:56:01.007Z,94331.59
2023-02-18T07:56:58.847Z,94371.69
2023-02-18T07:58:00.945Z,94387.75
2023-02-18T07:58:58.694Z,94386.06
2023-02-18T07:59:55.307Z,94383.78
2023-02-18T08:00:54.242Z,94381.00
2023-02-18T08:01:50.968Z,94357.94
2023-02-18T08:02:47.662Z,94377.41
2023-02-18T08:03:44.372Z,94383.00
2023-02-18T08:04:40.933Z,94373.44
2023-02-18T08:05:37.681Z,94375.91
2023-02-18T08:06:37.296Z,94387.50
2023-02-18T08:07:34.049Z,94395.22
2023-02-18T08:08:32.211Z,94400.59
2023-02-18T08:09:28.832Z,94407.19
2023-02-18T08:10:25.540Z,94393.97
2023-02-18T08:11:22.478Z,94341.06
2023-02-18T08:12:19.208Z,94402.91
2023-02-18T08:13:15.886Z,94396.66
2023-02-18T08:14:12.484Z,94401.81
2023-02-18T08:15:09.426Z,94404.59
2023-02-18T08:16:06.486Z,94403.88
2023-02-18T08:17:03.189Z,94404.00
2023-02-18T08:17:59.882Z,94398.84
2023-02-18T08:18:56.866Z,94400.03
2023-02-18T08:19:53.442Z,94386.56
2023-02-18T08:20:51.908Z,94394.50
2023-02-18T08:21:48.530Z,94329.94
2023-02-18T08:22:45.386Z,94393.66
2023-02-18T08:23:42.180Z,94393.56
2023-02-18T08:24:38.767Z,94327.06
2023-02-18T08:25:35.427Z,94397.59
2023-02-18T08:26:32.044Z,94395.34
2023-02-18T08:27:28.674Z,94343.81
2023-02-18T08:28:25.910Z,94390.88
2023-02-18T08:29:22.762Z,94386.88
2023-02-18T08:30:19.663Z,94385.78
2023-02-18T08:31:19.318Z,94385.53
2023-02-18T08:32:17.047Z,94402.03
2023-02-18T08:33:14.110Z,94394.13
2023-02-18T08:34:10.692Z,94395.69
2023-02-18T08:35:08.050Z,94392.75
2023-02-18T08:36:07.936Z,94390.81
2023-02-18T08:37:04.997Z,94404.78
2023-02-18T08:38:01.697Z,94396.59
2023-02-18T08:39:00.109Z,94400.81
2023-02-18T08:39:59.067Z,94392.56
2023-02-18T08:41:04.250Z,94395.53
2023-02-18T08:42:01.271Z,94383.00
2023-02-18T08:42:57.956Z,94388.41
2023-02-18T08:43:54.724Z,94386.75
2023-02-18T08:44:51.364Z,94347.91
2023-02-18T08:45:48.055Z,94358.44
2023-02-18T08:46:46.591Z,94395.03
2023-02-18T08:48:17.447Z,94404.53
2023-02-18T08:48:59.769Z,94399.66
2023-02-18T08:49:56.456Z,94353.03
2023-02-18T08:50:53.171Z,94378.94
2023-02-18T08:51:53.146Z,94363.91
2023-02-18T08:52:49.707Z,94362.00
2023-02-18T08:53:47.250Z,94382.25
2023-02-18T08:54:43.794Z,94355.63
2023-02-18T08:55:41.741Z,94345.50
2023-02-18T08:56:39.596Z,94335.75
2023-02-18T08:57:36.184Z,94350.91
2023-02-18T08:58:32.878Z,94386.31
2023-02-18T08:59:29.480Z,94375.88
2023-02-18T09:00:26.745Z,94377.72
2023-02-18T09:01:23.636Z,94380.44
2023-02-18T09:02:20.300Z,94391.53
2023-02-18T09:03:16.955Z,94386.09
2023-02-18T09:04:13.660Z,94390.28
2023-02-18T09:05:11.398Z,94399.19
2023-02-18T09:06:08.530Z,94391.41
2023-02-18T09:07:05.110Z,94369.88
2023-02-18T09:08:01.705Z,94380.16
2023-02-18T09:08:59.695Z,94379.81
2023-02-18T09:09:57.464Z,94384.47
2023-02-18T09:10:58.940Z,94383.41
2023-02-18T09:11:55.539Z,94378.34
2023-02-18T09:12:52.181Z,94379.75
2023-02-18T09:13:48.873Z,94383.78
2023-02-18T09:14:48.067Z,94370.34
2023-02-18T09:15:44.698Z,94390.84
2023-02-18T09:16:42.356Z,94379.19
2023-02-18T09:17:38.946Z,94378.53
2023-02-18T09:18:36.076Z,94381.50
2023-02-18T09:19:32.751Z,94361.41
2023-02-18T09:20:29.477Z,94355.06
2023-02-18T09:21:27.003Z,94372.06
2023-02-18T09:22:23.796Z,94383.03
2023-02-18T09:23:21.366Z,94384.81
2023-02-18T09:24:17.943Z,94387.31
2023-02-18T09:25:14.592Z,94388.94
2023-02-18T09:26:15.050Z,94384.34
2023-02-18T09:27:12.128Z,94382.69
2023-02-18T09:28:08.774Z,94381.91
2023-02-18T09:29:05.437Z,94382.09
2023-02-18T09:30:02.356Z,94378.81
2023-02-18T09:31:04.742Z,94385.25
2023-02-18T09:32:02.450Z,94394.84
2023-02-18T09:32:59.105Z,94392.56
2023-02-18T09:34:00.183Z,94388.16
2023-02-18T09:34:56.740Z,94390.63
2023-02-18T09:35:53.335Z,94396.72
2023-02-18T09:36:49.902Z,94388.28
2023-02-18T09:37:46.505Z,94391.72
2023-02-18T09:38:43.138Z,94358.97
2023-02-18T09:39:39.774Z,94391.06
2023-02-18T09:40:39.441Z,94385.59
2023-02-18T09:41:45.461Z,94394.94
2023-02-18T09:42:42.116Z,94384.34
2023-02-18T09:43:45.881Z,94367.97
2023-02-18T09:44:51.112Z,94375.75
2023-02-18T09:45:47.768Z,94389.91
2023-02-18T09:47:05.323Z,94384.63
2023-02-18T09:48:03.832Z,94373.47
2023-02-18T09:49:07.258Z,94381.50
2023-02-18T09:50:14.025Z,94368.78
2023-02-18T09:51:15.304Z,94349.81
2023-02-18T09:52:11.903Z,94384.94
2023-02-18T09:53:12.679Z,94385.91
2023-02-18T09:54:14.580Z,94392.06
2023-02-18T09:55:24.846Z,94349.66
2023-02-18T09:56:29.824Z,94344.09
2023-02-18T09:57:30.237Z,94379.47
2023-02-18T09:58:31.505Z,94378.59
2023-02-18T09:59:28.983Z,94382.00
2023-02-18T10:00:33.967Z,94380.00
2023-02-18T10:01:37.450Z,94376.88
2023-02-18T10:02:35.590Z,94303.38
2023-02-18T10:03:32.466Z,94385.59
2023-02-18T10:04:45.752Z,94364.41
2023-02-18T10:05:55.592Z,94364.72
2023-02-18T10:06:54.203Z,94376.31
2023-02-18T10:07:55.100Z,94375.44
2023-02-18T10:08:54.068Z,94344.16
2023-02-18T10:09:52.253Z,94322.84
2023-02-18T10:10:48.910Z,94370.78
2023-02-18T10:11:49.527Z,94361.31
2023-02-18T10:12:46.236Z,94364.59
2023-02-18T10:13:43.882Z,94318.00
2023-02-18T10:14:41.176Z,94358.13
2023-02-18T10:15:39.032Z,94344.31
2023-02-18T10:16:35.737Z,94310.19
2023-02-18T10:17:33.555Z,94352.94
2023-02-18T10:18:39.962Z,94349.31
2023-02-18T10:19:40.997Z,94347.16
2023-02-18T10:20:37.873Z,94342.97
2023-02-18T10:21:36.206Z,94345.69
2023-02-18T10:22:33.123Z,94350.22
2023-02-18T10:23:31.352Z,94339.75
2023-02-18T10:24:40.150Z,94339.44
2023-02-18T10:25:42.285Z,94274.81
2023-02-18T10:26:39.257Z,94336.94
2023-02-18T10:27:39.074Z,94327.13
2023-02-18T10:28:37.840Z,94338.34
2023-02-18T10:29:35.939Z,94327.44
2023-02-18T10:30:43.204Z,94303.81
2023-02-18T10:31:45.815Z,94273.91
2023-02-18T10:32:45.431Z,94328.63
2023-02-18T10:33:48.235Z,94326.44
2023-02-18T10:35:02.009Z,94331.53
2023-02-18T10:36:24.507Z,94337.41
2023-02-18T10:37:33.954Z,94345.22
2023-02-18T10:38:36.536Z,94334.94
2023-02-18T10:39:38.980Z,94327.63
2023-02-18T10:41:02.888Z,94322.72
2023-02-18T10:42:10.791Z,94317.34
2023-02-18T10:43:14.431Z,94320.91
2023-02-18T10:44:35.528Z,94317.69
2023-02-18T10:45:59.844Z,94301.94
2023-02-18T10:47:27.110Z,94304.47
2023-02-18T10:48:51.794Z,94303.53
2023-02-18T10:49:57.894Z,94298.25
2023-02-18T10:50:56.040Z,94299.75
2023-02-18T10:51:56.622Z,94304.72
2023-02-18T10:52:56.521Z,94301.44
2023-02-18T10:53:54.168Z,94298.19
2023-02-18T10:55:09.463Z,94299.81
2023-02-18T10:56:07.423Z,94295.38
2023-02-18T10:57:04.805Z,94297.75
2023-02-18T10:58:01.626Z,94302.06
2023-02-18T10:59:18.889Z,94299.75
2023-02-18T11:00:27.150Z,94296.91
2023-02-18T11:01:23.937Z,94280.59
2023-02-18T11:02:21.560Z,94288.53
2023-02-18T11:03:24.199Z,94295.56
2023-02-18T11:04:24.131Z,94285.03
2023-02-18T11:05:26.997Z,94292.19
2023-02-18T11:06:26.565Z,94288.16
2023-02-18T11:07:26.918Z,94282.16
2023-02-18T11:08:27.185Z,94277.75
2023-02-18T11:09:47.610Z,94274.19
2023-02-18T11:10:46.193Z,94274.97
2023-02-18T11:11:45.697Z,94271.16
2023-02-18T11:12:51.697Z,94269.34
2023-02-18T11:13:58.717Z,94252.28
2023-02-18T11:15:04.466Z,94267.03
2023-02-18T11:16:05.051Z,94264.69
2023-02-18T11:17:14.776Z,94265.66
2023-02-18T11:18:26.785Z,94262.53
2023-02-18T11:19:39.793Z,94264.69
2023-02-18T11:20:38.533Z,94264.94
2023-02-18T11:21:37.953Z,94270.69
2023-02-18T11:22:41.549Z,94236.75
2023-02-18T11:23:51.058Z,94232.31
2023-02-18T11:24:48.757Z,94258.97
2023-02-18T11:25:54.286Z,94260.88
2023-02-18T11:26:50.968Z,94257.25
2023-02-18T11:27:55.115Z,94250.34
2023-02-18T11:29:01.519Z,94241.63
2023-02-18T11:30:07.855Z,94262.19
2023-02-18T11:31:05.462Z,94248.16
2023-02-18T11:32:02.465Z,94250.75
2023-02-18T11:33:16.431Z,94248.47
2023-02-18T11:34:20.227Z,94245.59
2023-02-18T11:35:19.944Z,94222.09
2023-02-18T11:36:22.453Z,94251.72
2023-02-18T11:37:21.181Z,94239.72
2023-02-18T11:38:33.313Z,94237.06
2023-02-18T11:39:30.245Z,94249.38
2023-02-18T11:40:36.903Z,94244.81
2023-02-18T11:41:37.435Z,94239.34
2023-02-18T11:42:34.306Z,94230.03